Time;durP1;ratioP1;P1;durP2;ratioP2;P2;SDS_P1;SDS_P2;PMS_P1;PMS_P2;Temp;Humidity;BMP_temperature;BMP_pressure;BME280_temperature;BME280_humidity;BME280_pressure;Samples;Min_cycle;Max_cycle;Signal;HPM_P1;HPM_P2
2022/10/15 00:00:21;;;;;;;10.13;5.77;;;;;;;14.35;100.00;101917.97;2062632;28;20223;-64
2022/10/15 00:01:21;;;;;;;12.97;5.93;;;;;;;14.33;100.00;101919.63;2069717;28;20189;-64
2022/10/15 00:02:22;;;;;;;9.57;5.47;;;;;;;14.32;100.00;101920.84;2062249;28;20573;-64
2022/10/15 00:03:22;;;;;;;9.93;6.10;;;;;;;14.27;100.00;101912.97;2062374;28;20231;-64
2022/10/15 00:04:23;;;;;;;9.70;6.03;;;;;;;14.27;100.00;101918.53;2062182;28;20197;-64
2022/10/15 00:05:23;;;;;;;9.93;5.90;;;;;;;14.24;100.00;101916.63;2061937;28;20904;-64
2022/10/15 00:06:23;;;;;;;14.40;6.33;;;;;;;14.18;100.00;101919.06;2062691;28;20184;-64
2022/10/15 00:07:24;;;;;;;10.40;6.07;;;;;;;14.16;100.00;101915.94;2062286;28;20196;-64
2022/10/15 00:08:25;;;;;;;13.20;6.27;;;;;;;14.06;100.00;101907.75;2061237;28;20310;-64
2022/10/15 00:09:25;;;;;;;13.37;6.30;;;;;;;14.12;100.00;101919.97;2061689;28;21380;-64
2022/10/15 00:10:25;;;;;;;11.40;6.10;;;;;;;14.05;100.00;101911.75;2062781;28;20677;-64
2022/10/15 00:11:27;;;;;;;10.70;5.87;;;;;;;14.07;100.00;101917.69;2062463;28;20698;-64
2022/10/15 00:12:28;;;;;;;12.73;6.37;;;;;;;13.98;100.00;101921.03;2062669;28;20249;-64
2022/10/15 00:13:28;;;;;;;12.10;6.27;;;;;;;13.98;100.00;101923.81;2062209;28;20594;-64
2022/10/15 00:14:28;;;;;;;11.17;6.23;;;;;;;13.96;100.00;101920.66;2063128;28;20216;-64
2022/10/15 00:15:29;;;;;;;9.43;5.90;;;;;;;13.56;100.00;101862.44;2063595;28;20199;-64
2022/10/15 00:16:30;;;;;;;12.67;6.70;;;;;;;13.93;100.00;101923.53;2063966;28;20240;-64
2022/10/15 00:17:32;;;;;;;13.83;6.77;;;;;;;13.89;100.00;101925.56;2063478;28;20195;-64
2022/10/15 00:18:33;;;;;;;12.13;6.30;;;;;;;13.89;100.00;101920.00;2063910;28;20189;-64
2022/10/15 00:19:33;;;;;;;11.23;6.77;;;;;;;13.89;100.00;101933.94;2064112;28;20438;-64
2022/10/15 00:20:34;;;;;;;9.67;5.73;;;;;;;13.85;100.00;101928.44;2064182;28;20187;-64
2022/10/15 00:21:34;;;;;;;12.83;5.90;;;;;;;13.83;100.00;101928.03;2064239;28;20184;-64
2022/10/15 00:22:36;;;;;;;12.53;5.93;;;;;;;13.83;100.00;101930.81;2064041;28;20192;-64
2022/10/15 00:23:37;;;;;;;13.03;6.10;;;;;;;13.81;100.00;101924.91;2063263;28;20215;-64
2022/10/15 00:24:37;;;;;;;9.83;5.63;;;;;;;13.78;100.00;101925.75;2063847;28;20573;-64
2022/10/15 00:25:41;;;;;;;11.60;5.93;;;;;;;13.78;100.00;101922.94;2063632;28;20494;-64
2022/10/15 00:26:41;;;;;;;10.27;5.90;;;;;;;13.77;100.00;101920.59;2064446;28;20183;-64
2022/10/15 00:27:41;;;;;;;12.33;5.97;;;;;;;13.75;100.00;101934.97;2064083;28;20461;-64
2022/10/15 00:28:42;;;;;;;10.40;5.50;;;;;;;13.73;100.00;101931.03;2063694;28;20925;-64
2022/10/15 00:29:42;;;;;;;10.37;5.43;;;;;;;13.72;100.00;101923.84;2064411;28;20193;-64
2022/10/15 00:30:43;;;;;;;10.60;6.07;;;;;;;13.72;100.00;101918.28;2063696;28;20200;-64
2022/10/15 00:31:43;;;;;;;11.23;6.03;;;;;;;13.72;100.00;101921.06;2064133;28;20687;-64
2022/10/15 00:32:44;;;;;;;12.87;6.43;;;;;;;13.70;100.00;101927.06;2063976;28;20197;-64
2022/10/15 00:33:45;;;;;;;13.10;6.27;;;;;;;13.69;100.00;101928.25;2063092;28;20246;-64
2022/10/15 00:34:46;;;;;;;13.53;6.53;;;;;;;13.68;100.00;101923.13;2063806;28;20183;-64
2022/10/15 00:35:46;;;;;;;11.00;6.40;;;;;;;13.68;100.00;101931.50;2063846;28;20438;-64
2022/10/15 00:36:49;;;;;;;10.13;6.00;;;;;;;13.65;100.00;101935.91;2063938;28;20194;-64
2022/10/15 00:37:49;;;;;;;11.67;6.07;;;;;;;13.67;100.00;101927.13;2063959;28;20200;-64
2022/10/15 00:38:51;;;;;;;9.70;5.77;;;;;;;13.68;100.00;101925.94;2063444;28;20538;-64
2022/10/15 00:39:51;;;;;;;13.37;5.90;;;;;;;13.70;100.00;101927.06;2064027;28;20195;-64
2022/10/15 00:40:51;;;;;;;9.57;5.50;;;;;;;13.73;100.00;101928.22;2065235;28;20455;-64
2022/10/15 00:41:52;;;;;;;8.10;5.40;;;;;;;13.69;100.00;101924.72;2064152;28;20229;-64
2022/10/15 00:42:52;;;;;;;10.00;5.40;;;;;;;13.63;100.00;101916.03;2064104;28;20194;-64
2022/10/15 00:44:21;;;;;;;9.57;5.63;;;;;;;13.71;100.00;101927.84;2063976;28;20636;-64
2022/10/15 00:45:21;;;;;;;9.83;5.30;;;;;;;13.72;100.00;101919.06;2054016;28;20324;-64
2022/10/15 00:46:36;;;;;;;13.37;6.10;;;;;;;13.19;100.00;101830.03;2063573;28;20462;-64
2022/10/15 00:47:43;;;;;;;9.53;5.87;;;;;;;13.38;100.00;101881.44;2063791;28;20643;-64
2022/10/15 00:48:47;;;;;;;12.20;5.90;;;;;;;13.75;100.00;101917.44;2063015;28;21030;-64
2022/10/15 00:50:26;;;;;;;11.93;6.37;;;;;;;13.75;100.00;101917.44;2065324;28;21006;-64
2022/10/15 00:51:32;;;;;;;10.57;5.90;;;;;;;13.75;100.00;101918.25;2063873;28;20568;-64
2022/10/15 00:52:53;;;;;;;11.63;5.87;;;;;;;13.77;100.00;101926.16;2063755;28;20454;-64
2022/10/15 00:53:54;;;;;;;10.27;5.80;;;;;;;13.76;100.00;101917.03;2063534;28;20512;-64
2022/10/15 00:54:59;;;;;;;12.93;5.93;;;;;;;13.79;100.00;101923.75;2063300;28;20948;-64
2022/10/15 00:56:01;;;;;;;11.47;5.93;;;;;;;13.81;100.00;101919.34;2063844;28;20483;-64
2022/10/15 00:57:02;;;;;;;8.90;5.33;;;;;;;13.71;100.00;101903.56;2063753;28;20492;-64
2022/10/15 00:58:15;;;;;;;9.53;5.67;;;;;;;13.86;100.00;101921.63;2063585;28;20462;-64
2022/10/15 00:59:18;;;;;;;12.77;5.90;;;;;;;13.89;100.00;101920.00;2063877;28;20455;-64
2022/10/15 01:00:19;;;;;;;10.43;6.10;;;;;;;13.91;100.00;101917.56;2063724;28;20886;-64
2022/10/15 01:01:20;;;;;;;10.20;5.43;;;;;;;13.94;100.00;101919.50;2063752;28;20408;-64
2022/10/15 01:02:21;;;;;;;11.97;6.40;;;;;;;13.97;100.00;101921.44;2064200;28;20724;-64
2022/10/15 01:03:22;;;;;;;12.90;6.47;;;;;;;13.97;100.00;101918.66;2063683;28;20570;-64
2022/10/15 01:04:22;;;;;;;9.03;5.60;;;;;;;13.65;100.00;101874.63;2063525;28;20192;-64
2022/10/15 01:05:23;;;;;;;11.37;6.20;;;;;;;13.83;100.00;101900.19;2063171;28;20189;-64
2022/10/15 01:06:25;;;;;;;10.23;5.80;;;;;;;14.05;100.00;101923.69;2063920;28;20194;-64
2022/10/15 01:07:25;;;;;;;12.07;5.80;;;;;;;14.06;100.00;101916.91;2063525;28;20201;-64
2022/10/15 01:08:25;;;;;;;11.87;5.73;;;;;;;14.09;100.00;101923.63;2063375;28;20436;-64
2022/10/15 01:09:26;;;;;;;10.20;6.33;;;;;;;14.12;100.00;101917.19;2063842;28;20203;-64
2022/10/15 01:10:38;;;;;;;10.07;5.57;;;;;;;14.15;100.00;101927.50;2064159;28;20188;-64
2022/10/15 01:11:47;;;;;;;10.77;5.57;;;;;;;14.16;100.00;101929.88;2063568;28;20210;-64
2022/10/15 01:13:17;;;;;;;8.30;5.63;;;;;;;14.19;100.00;101926.25;2063926;28;20507;-64
2022/10/15 01:14:39;;;;;;;13.93;6.57;;;;;;;14.21;100.00;101923.03;2063211;28;20419;-64
2022/10/15 01:15:50;;;;;;;9.93;5.80;;;;;;;14.22;100.00;101919.84;2063244;28;20504;-64
2022/10/15 01:17:09;;;;;;;9.97;5.80;;;;;;;14.24;100.00;101922.97;2063726;28;20437;-64
2022/10/15 01:18:42;;;;;;;15.60;6.43;;;;;;;14.24;100.00;101920.19;2063531;28;20804;-64
2022/10/15 01:20:08;;;;;;;11.90;5.53;;;;;;;14.25;100.00;101923.78;2054026;28;20449;-64
2022/10/15 01:21:34;;;;;;;11.03;5.87;;;;;;;14.22;100.00;101921.81;2046485;28;20424;-64
2022/10/15 01:22:40;;;;;;;12.10;5.90;;;;;;;14.23;100.00;101915.81;2063006;28;20960;-64
2022/10/15 01:24:05;;;;;;;11.07;6.00;;;;;;;14.25;100.00;101921.75;2062102;28;20931;-64
2022/10/15 01:25:17;;;;;;;8.50;5.53;;;;;;;14.26;100.00;101919.75;2063023;28;20444;-64
2022/10/15 01:26:39;;;;;;;11.00;5.57;;;;;;;14.23;100.00;101926.97;2062716;28;21032;-65
2022/10/15 01:27:48;;;;;;;11.97;5.67;;;;;;;14.25;100.00;101921.75;2063486;28;20442;-65
2022/10/15 01:28:51;;;;;;;13.90;5.63;;;;;;;14.25;100.00;101927.31;2062904;28;20437;-65
2022/10/15 01:30:13;;;;;;;10.70;5.10;;;;;;;14.26;100.00;101928.94;2063659;28;20441;-65
2022/10/15 01:31:25;;;;;;;12.03;5.77;;;;;;;13.73;100.00;101845.41;2063496;28;20957;-65
2022/10/15 01:32:36;;;;;;;10.63;5.33;;;;;;;14.25;100.00;101918.19;2064141;28;20683;-65
2022/10/15 01:33:47;;;;;;;9.53;5.37;;;;;;;14.28;100.00;101920.91;2062941;28;20421;-64
2022/10/15 01:34:58;;;;;;;12.37;5.40;;;;;;;14.28;100.00;101922.91;2062827;28;20420;-64
2022/10/15 01:36:15;;;;;;;12.20;5.20;;;;;;;14.29;100.00;101919.69;2063454;28;20790;-64
2022/10/15 01:37:37;;;;;;;9.10;5.73;;;;;;;14.30;100.00;101920.50;2063622;28;20722;-64
2022/10/15 01:39:03;;;;;;;10.53;5.73;;;;;;;14.33;100.00;101919.63;2063153;28;20426;-64
2022/10/15 01:40:10;;;;;;;11.03;5.93;;;;;;;13.89;100.00;101862.25;2063608;28;20865;-64
2022/10/15 01:41:37;;;;;;;8.83;5.87;;;;;;;14.31;100.00;101924.84;2064517;28;20659;-64
2022/10/15 01:42:57;;;;;;;10.53;5.10;;;;;;;14.29;100.00;101916.91;2063092;28;20456;-64
2022/10/15 01:44:13;;;;;;;8.37;5.20;;;;;;;14.30;100.00;101921.25;2063218;28;20913;-64
2022/10/15 01:45:21;;;;;;;11.33;5.43;;;;;;;13.88;100.00;101859.91;2063007;28;20413;-64
2022/10/15 01:46:54;;;;;;;9.97;5.20;;;;;;;14.30;100.00;101920.50;2063568;28;20931;-64
2022/10/15 01:47:58;;;;;;;10.70;5.40;;;;;;;14.27;100.00;101912.97;2062708;28;20531;-64
2022/10/15 01:49:04;;;;;;;9.43;5.40;;;;;;;14.31;100.00;101920.06;2062884;28;20549;-65
2022/10/15 01:50:06;;;;;;;10.03;5.47;;;;;;;14.32;100.00;101926.41;2065106;28;27086;-65
2022/10/15 01:51:10;;;;;;;10.13;5.40;;;;;;;14.32;100.00;101927.22;2063434;28;20527;-65
2022/10/15 01:52:19;;;;;;;11.87;5.53;;;;;;;14.33;100.00;101922.41;2063258;28;21000;-65
2022/10/15 01:53:25;;;;;;;8.97;5.60;;;;;;;14.34;100.00;101929.59;2063486;28;20944;-65
2022/10/15 01:54:27;;;;;;;9.73;6.00;;;;;;;14.36;100.00;101930.72;2063295;28;20808;-65
2022/10/15 01:55:30;;;;;;;10.13;5.73;;;;;;;14.37;100.00;101926.72;2063136;28;20425;-64
2022/10/15 01:56:33;;;;;;;9.40;5.50;;;;;;;14.38;100.00;101930.28;2063100;28;20947;-64
2022/10/15 01:57:35;;;;;;;9.53;5.70;;;;;;;14.35;100.00;101933.94;2063280;28;20451;-64
2022/10/15 01:58:42;;;;;;;11.57;5.37;;;;;;;14.40;100.00;101925.84;2062886;28;20532;-64
2022/10/15 01:59:43;;;;;;;13.37;5.77;;;;;;;13.92;100.00;101846.69;2063350;28;20844;-64
2022/10/15 02:00:46;;;;;;;7.87;5.70;;;;;;;14.34;100.00;101930.34;2063298;28;20981;-64
2022/10/15 02:01:46;;;;;;;10.17;5.20;;;;;;;14.28;100.00;101917.31;2063553;28;20870;-64
2022/10/15 02:02:47;;;;;;;8.47;5.57;;;;;;;14.41;100.00;101935.03;2063207;28;20603;-64
2022/10/15 02:03:52;;;;;;;11.10;5.70;;;;;;;14.43;100.00;101938.97;2062913;28;20189;-64
2022/10/15 02:04:52;;;;;;;10.40;5.97;;;;;;;14.44;100.00;101934.94;2062511;28;20171;-64
2022/10/15 02:06:05;;;;;;;11.63;5.40;;;;;;;14.17;100.00;101894.41;2063067;28;20977;-64
2022/10/15 02:07:10;;;;;;;8.50;5.47;;;;;;;14.43;100.00;101947.31;2063202;28;20739;-64
2022/10/15 02:08:13;;;;;;;13.40;5.47;;;;;;;14.45;100.00;101933.72;2063132;28;20951;-64
2022/10/15 02:09:49;;;;;;;10.63;5.63;;;;;;;14.49;100.00;101942.06;2063782;28;20854;-64
2022/10/15 02:11:02;;;;;;;10.30;5.77;;;;;;;14.50;100.00;101938.03;2055051;28;20462;-64
2022/10/15 02:12:08;;;;;;;9.53;5.73;;;;;;;14.49;100.00;101942.81;2063398;28;20429;-64
2022/10/15 02:13:15;;;;;;;10.87;5.70;;;;;;;14.30;100.00;101903.75;2063265;28;20441;-64
2022/10/15 02:14:42;;;;;;;10.93;5.43;;;;;;;14.46;100.00;101938.13;2062579;28;20884;-64
2022/10/15 02:15:48;;;;;;;11.60;5.67;;;;;;;14.43;100.00;101936.16;2061899;28;20457;-64
2022/10/15 02:17:14;;;;;;;10.03;5.40;;;;;;;14.43;100.00;101930.59;2063179;28;20445;-64
2022/10/15 02:18:28;;;;;;;12.33;5.37;;;;;;;14.41;100.00;101943.38;2062433;28;20897;-64
2022/10/15 02:19:44;;;;;;;9.10;5.20;;;;;;;13.76;100.00;101836.22;2062405;28;20472;-64
2022/10/15 02:21:07;;;;;;;11.10;5.20;;;;;;;14.36;100.00;101936.31;2062521;28;20425;-64
2022/10/15 02:22:21;;;;;;;9.97;5.80;;;;;;;14.38;100.00;101938.66;2062872;28;20433;-64
2022/10/15 02:23:30;;;;;;;10.60;5.57;;;;;;;14.36;100.00;101930.72;2063640;28;20934;-64
2022/10/15 02:24:57;;;;;;;11.50;5.67;;;;;;;14.42;100.00;101953.31;2063195;28;20421;-64
2022/10/15 02:25:58;;;;;;;12.50;5.87;;;;;;;14.44;100.00;101939.75;2062752;28;20543;-64
2022/10/15 02:27:01;;;;;;;14.30;5.60;;;;;;;14.44;100.00;101937.75;2063177;28;20923;-64
2022/10/15 02:28:04;;;;;;;11.57;5.43;;;;;;;14.43;100.00;101936.16;2062935;28;20447;-64
2022/10/15 02:29:09;;;;;;;9.60;5.63;;;;;;;14.35;100.00;101950.69;2062856;28;20893;-64
2022/10/15 02:30:10;;;;;;;10.87;5.80;;;;;;;14.37;100.00;101948.22;2062829;28;20424;-64
2022/10/15 02:31:14;;;;;;;10.33;5.47;;;;;;;14.37;100.00;101942.66;2063388;28;20473;-64
2022/10/15 02:32:15;;;;;;;10.57;5.10;;;;;;;14.37;100.00;101948.22;2063091;28;20495;-64
2022/10/15 02:33:17;;;;;;;9.93;5.50;;;;;;;14.11;100.00;101910.03;2070374;28;20437;-64
2022/10/15 02:34:21;;;;;;;11.13;5.67;;;;;;;14.23;100.00;101929.78;2064474;28;20935;-63
2022/10/15 02:35:23;;;;;;;11.20;5.67;;;;;;;14.41;100.00;101948.97;2062591;28;20452;-63
2022/10/15 02:36:23;;;;;;;11.50;5.50;;;;;;;13.93;100.00;101873.34;2063183;28;20969;-64
2022/10/15 02:37:26;;;;;;;13.13;5.40;;;;;;;14.45;100.00;101952.47;2063102;28;20810;-64
2022/10/15 02:38:31;;;;;;;9.33;5.63;;;;;;;14.45;100.00;101942.09;2062415;28;20193;-64
2022/10/15 02:39:33;;;;;;;8.73;5.07;;;;;;;14.47;100.00;101961.19;2062955;28;20429;-64
2022/10/15 02:40:35;;;;;;;11.83;6.17;;;;;;;14.46;100.00;101945.69;2063542;28;20827;-64
2022/10/15 02:41:37;;;;;;;8.97;5.33;;;;;;;14.48;100.00;101946.03;2063482;28;20652;-64
2022/10/15 02:42:37;;;;;;;14.47;5.53;;;;;;;14.49;100.00;101951.19;2063366;28;20432;-64
2022/10/15 02:43:39;;;;;;;7.27;5.37;;;;;;;14.48;100.00;101955.19;2062625;28;20967;-64
2022/10/15 02:44:40;;;;;;;11.27;5.57;;;;;;;14.31;100.00;101924.84;2062889;28;20657;-64
2022/10/15 02:45:41;;;;;;;8.27;5.53;;;;;;;14.20;100.00;101901.97;2062319;28;20449;-63
2022/10/15 02:46:41;;;;;;;8.73;5.50;;;;;;;14.49;100.00;101953.22;2062196;28;20200;-63
2022/10/15 02:47:42;;;;;;;9.17;4.97;;;;;;;14.18;100.00;101895.97;2063031;28;20209;-64
2022/10/15 02:48:42;;;;;;;8.73;4.73;;;;;;;14.51;100.00;101948.75;2062387;28;20183;-64
2022/10/15 02:49:43;;;;;;;10.37;5.50;;;;;;;14.54;100.00;101949.91;2064013;28;20223;-63
2022/10/15 02:50:43;;;;;;;9.80;5.17;;;;;;;14.57;100.00;101949.84;2063327;28;20289;-64
2022/10/15 02:51:44;;;;;;;12.03;4.93;;;;;;;14.58;100.00;101950.63;2063031;28;20216;-64
2022/10/15 02:52:44;;;;;;;9.23;5.10;;;;;;;14.61;100.00;101952.56;2062786;28;20198;-64
2022/10/15 02:53:45;;;;;;;10.80;5.03;;;;;;;14.62;100.00;101954.94;2062680;28;20277;-64
2022/10/15 02:54:45;;;;;;;8.87;5.00;;;;;;;14.63;100.00;101939.75;2062382;28;20194;-64
2022/10/15 02:55:46;;;;;;;10.50;5.50;;;;;;;14.64;100.00;101946.91;2062806;28;20205;-64
2022/10/15 02:56:46;;;;;;;14.37;5.30;;;;;;;14.32;100.00;101896.53;2062862;28;20187;-64
2022/10/15 02:57:47;;;;;;;9.37;4.80;;;;;;;14.68;100.00;101956.00;2062819;28;20617;-63
2022/10/15 02:58:47;;;;;;;10.90;5.30;;;;;;;14.71;100.00;101951.56;2062886;28;20277;-64
2022/10/15 02:59:48;;;;;;;9.97;5.57;;;;;;;14.72;100.00;101959.53;2062992;28;20694;-64
2022/10/15 03:00:48;;;;;;;10.33;5.17;;;;;;;14.74;100.00;101948.72;2062753;28;20554;-64
2022/10/15 03:01:49;;;;;;;7.33;4.80;;;;;;;14.75;100.00;101957.88;2062780;28;20680;-64
2022/10/15 03:02:50;;;;;;;11.47;5.00;;;;;;;14.76;100.00;101951.84;2062860;28;20187;-64
2022/10/15 03:03:50;;;;;;;9.57;5.23;;;;;;;14.77;100.00;101950.66;2062454;28;20178;-64
2022/10/15 03:04:50;;;;;;;11.73;5.33;;;;;;;14.78;100.00;101943.06;2062358;28;20470;-64
2022/10/15 03:05:51;;;;;;;9.33;4.53;;;;;;;14.61;100.00;101922.66;2062566;28;20241;-64
2022/10/15 03:06:51;;;;;;;10.43;5.13;;;;;;;14.75;100.00;101946.72;2063099;28;20186;-64
2022/10/15 03:07:52;;;;;;;7.80;4.87;;;;;;;14.75;100.00;101949.50;2062748;28;20218;-64
2022/10/15 03:08:53;;;;;;;7.77;4.47;;;;;;;14.48;100.00;101910.56;2062366;28;20193;-64
2022/10/15 03:09:53;;;;;;;9.97;4.70;;;;;;;14.75;100.00;101952.31;2062995;28;20186;-64
2022/10/15 03:10:53;;;;;;;8.73;5.23;;;;;;;14.77;100.00;101949.84;2062757;28;20186;-64
2022/10/15 03:11:54;;;;;;;10.30;5.27;;;;;;;14.77;100.00;101949.84;2062955;28;20185;-64
2022/10/15 03:12:54;;;;;;;9.13;4.97;;;;;;;14.73;100.00;101949.94;2062886;28;20614;-64
2022/10/15 03:13:55;;;;;;;9.50;4.90;;;;;;;14.74;100.00;101956.28;2062127;28;20187;-64
2022/10/15 03:14:55;;;;;;;12.43;4.70;;;;;;;14.75;100.00;101955.09;2062611;28;20243;-64
2022/10/15 03:15:56;;;;;;;9.93;4.60;;;;;;;14.76;100.00;101962.25;2062851;28;20193;-64
2022/10/15 03:16:56;;;;;;;12.60;4.80;;;;;;;14.75;100.00;101955.84;2062821;28;20189;-64
2022/10/15 03:17:57;;;;;;;10.57;5.10;;;;;;;14.75;100.00;101949.50;2062866;28;20545;-64
2022/10/15 03:18:57;;;;;;;8.87;4.63;;;;;;;14.61;100.00;101964.50;2064448;28;20469;-64
2022/10/15 03:19:58;;;;;;;10.70;5.00;;;;;;;14.72;100.00;101956.72;2068373;28;20558;-64
2022/10/15 03:20:59;;;;;;;9.03;5.03;;;;;;;14.71;100.00;101948.78;2062807;28;20182;-64
2022/10/15 03:21:59;;;;;;;9.50;4.63;;;;;;;14.66;100.00;101955.63;2062682;28;20217;-64
2022/10/15 03:23:00;;;;;;;10.40;4.67;;;;;;;14.54;100.00;101933.16;2062846;28;20429;-64
2022/10/15 03:24:00;;;;;;;9.27;4.97;;;;;;;14.65;100.00;101956.09;2062671;28;20182;-64
2022/10/15 03:25:01;;;;;;;8.93;4.03;;;;;;;14.59;100.00;101950.19;2062057;28;20197;-64
2022/10/15 03:26:01;;;;;;;10.57;5.47;;;;;;;14.61;100.00;101952.56;2062312;28;20220;-64
2022/10/15 03:27:02;;;;;;;13.10;5.10;;;;;;;14.56;100.00;101951.03;2062619;28;20197;-64
2022/10/15 03:28:02;;;;;;;7.97;4.70;;;;;;;14.41;100.00;101938.59;2062520;28;20186;-64
2022/10/15 03:29:03;;;;;;;10.97;5.23;;;;;;;14.49;100.00;101953.97;2062346;28;20249;-64
2022/10/15 03:30:04;;;;;;;9.43;4.50;;;;;;;14.53;100.00;101956.69;2062489;28;20186;-64
2022/10/15 03:31:04;;;;;;;9.83;4.50;;;;;;;14.53;100.00;101963.06;2062873;28;20186;-64
2022/10/15 03:32:05;;;;;;;9.77;4.47;;;;;;;14.52;100.00;101961.50;2062630;28;20214;-64
2022/10/15 03:33:05;;;;;;;8.80;4.50;;;;;;;14.46;100.00;101952.06;2062733;28;20198;-64
2022/10/15 03:34:06;;;;;;;7.93;4.50;;;;;;;14.46;100.00;101960.44;2062216;28;20178;-64
2022/10/15 03:35:07;;;;;;;7.70;4.43;;;;;;;14.39;100.00;101952.19;2061899;28;20190;-64
2022/10/15 03:36:07;;;;;;;9.10;4.33;;;;;;;14.46;100.00;101968.00;2062574;28;20240;-64
2022/10/15 03:37:08;;;;;;;9.50;4.70;;;;;;;14.46;100.00;101960.44;2062493;28;20623;-64
2022/10/15 03:38:08;;;;;;;9.80;4.73;;;;;;;14.50;100.00;101963.16;2062449;28;20280;-64
2022/10/15 03:39:10;;;;;;;8.57;4.40;;;;;;;14.49;100.00;101953.22;2062733;28;20228;-64
2022/10/15 03:40:11;;;;;;;8.57;4.43;;;;;;;14.39;100.00;101941.03;2062763;28;20221;-64
2022/10/15 03:41:11;;;;;;;11.87;4.87;;;;;;;14.49;100.00;101965.13;2062732;28;20440;-64
2022/10/15 03:42:12;;;;;;;8.63;4.67;;;;;;;14.23;100.00;101918.63;2062652;28;20201;-64
2022/10/15 03:43:12;;;;;;;11.10;4.50;;;;;;;14.55;100.00;101957.06;2062629;28;20194;-64
2022/10/15 03:44:13;;;;;;;12.43;4.37;;;;;;;14.38;100.00;101930.28;2061879;28;20606;-64
2022/10/15 03:45:13;;;;;;;9.77;4.40;;;;;;;14.60;100.00;101948.97;2061956;28;20178;-64
2022/10/15 03:46:15;;;;;;;8.07;4.23;;;;;;;14.58;100.00;101956.19;2062405;28;20236;-64
2022/10/15 03:47:15;;;;;;;11.07;4.80;;;;;;;14.62;100.00;101963.31;2063117;28;20201;-64
2022/10/15 03:48:16;;;;;;;8.93;4.50;;;;;;;14.52;100.00;101947.56;2062285;28;20438;-64
2022/10/15 03:49:16;;;;;;;8.37;3.93;;;;;;;14.50;100.00;101954.78;2062120;28;20265;-63
2022/10/15 03:50:17;;;;;;;7.33;4.20;;;;;;;14.18;100.00;101909.91;2063451;28;20209;-63
2022/10/15 03:51:17;;;;;;;6.87;3.67;;;;;;;14.48;100.00;101960.78;2062532;28;20293;-64
2022/10/15 03:52:18;;;;;;;7.17;4.07;;;;;;;14.46;100.00;101956.84;2062564;28;20325;-64
2022/10/15 03:53:18;;;;;;;6.23;3.73;;;;;;;14.48;100.00;101954.41;2062675;28;20890;-64
2022/10/15 03:54:19;;;;;;;6.90;4.07;;;;;;;14.51;100.00;101962.69;2062121;28;20970;-64
2022/10/15 03:55:19;;;;;;;8.50;4.23;;;;;;;14.53;100.00;101959.50;2062280;28;21061;-63
2022/10/15 03:56:20;;;;;;;7.63;4.00;;;;;;;14.46;100.00;101965.22;2062631;28;20205;-63
2022/10/15 03:57:20;;;;;;;7.97;3.70;;;;;;;14.42;100.00;101956.13;2062560;28;20186;-64
2022/10/15 03:58:21;;;;;;;9.53;4.10;;;;;;;14.42;100.00;101956.91;2061971;28;20201;-64
2022/10/15 03:59:21;;;;;;;9.30;3.90;;;;;;;14.45;100.00;101958.06;2062358;28;20194;-64
2022/10/15 04:00:21;;;;;;;8.23;3.50;;;;;;;14.46;100.00;101960.44;2062352;28;20593;-63
2022/10/15 04:01:22;;;;;;;7.67;3.40;;;;;;;14.41;100.00;101951.75;2062731;28;20174;-63
2022/10/15 04:02:23;;;;;;;7.13;3.63;;;;;;;14.45;100.00;101955.28;2062477;28;20175;-63
2022/10/15 04:03:23;;;;;;;7.87;3.97;;;;;;;14.48;100.00;101951.59;2062592;28;20213;-63
2022/10/15 04:04:24;;;;;;;6.93;3.90;;;;;;;14.47;100.00;101956.41;2062290;28;20190;-64
2022/10/15 04:05:24;;;;;;;5.60;3.60;;;;;;;14.45;100.00;101958.84;2061777;28;20221;-64
2022/10/15 04:06:25;;;;;;;10.87;4.20;;;;;;;14.28;100.00;101922.91;2062397;28;20232;-63
2022/10/15 04:07:25;;;;;;;7.73;3.97;;;;;;;14.44;100.00;101951.69;2062499;28;20221;-63
2022/10/15 04:08:26;;;;;;;8.90;3.53;;;;;;;13.63;100.00;101820.56;2061765;28;20230;-63
2022/10/15 04:09:26;;;;;;;6.87;3.00;;;;;;;14.49;100.00;101950.41;2062533;28;20190;-64
2022/10/15 04:10:28;;;;;;;7.33;3.10;;;;;;;14.50;100.00;101952.75;2062413;28;20600;-64
2022/10/15 04:11:28;;;;;;;6.83;3.20;;;;;;;14.44;100.00;101957.25;2062293;28;20215;-64
2022/10/15 04:12:29;;;;;;;7.93;3.20;;;;;;;14.41;100.00;101951.75;2062567;28;20473;-64
2022/10/15 04:13:29;;;;;;;9.33;3.17;;;;;;;14.40;100.00;101955.75;2061903;28;20569;-64
2022/10/15 04:14:30;;;;;;;8.23;3.40;;;;;;;14.02;100.00;101893.88;2062547;28;20218;-64
2022/10/15 04:15:30;;;;;;;4.80;3.03;;;;;;;14.44;100.00;101957.25;2062059;28;20197;-64
2022/10/15 04:16:32;;;;;;;6.30;3.00;;;;;;;14.03;100.00;101909.38;2062465;28;20198;-64
2022/10/15 04:17:32;;;;;;;9.13;3.10;;;;;;;14.35;100.00;101970.19;2062298;28;20573;-64
2022/10/15 04:18:33;;;;;;;7.23;3.03;;;;;;;14.38;100.00;101961.75;2061948;28;20479;-64
2022/10/15 04:19:33;;;;;;;6.70;3.27;;;;;;;14.23;100.00;101940.13;2062711;28;20205;-64
2022/10/15 04:20:34;;;;;;;10.37;3.40;;;;;;;14.41;100.00;101968.50;2062474;28;20293;-64
2022/10/15 04:21:34;;;;;;;9.13;3.33;;;;;;;14.40;100.00;101959.31;2062651;28;20269;-64
2022/10/15 04:22:36;;;;;;;8.03;3.20;;;;;;;14.40;100.00;101967.69;2062549;28;20232;-64
2022/10/15 04:23:37;;;;;;;7.40;3.40;;;;;;;14.42;100.00;101965.28;2061791;28;20294;-63
2022/10/15 04:24:37;;;;;;;8.23;3.03;;;;;;;14.41;100.00;101963.72;2062271;28;20456;-63
2022/10/15 04:25:38;;;;;;;4.70;2.87;;;;;;;13.83;100.00;101877.13;2061732;28;20216;-63
2022/10/15 04:26:38;;;;;;;5.97;3.00;;;;;;;14.39;100.00;101962.56;2062327;28;20214;-63
2022/10/15 04:27:39;;;;;;;6.57;3.20;;;;;;;14.34;100.00;101966.59;2062667;28;20174;-63
2022/10/15 04:28:39;;;;;;;6.13;2.97;;;;;;;14.36;100.00;101966.19;2061859;28;20183;-63
2022/10/15 04:29:40;;;;;;;7.20;3.10;;;;;;;14.31;100.00;101959.13;2062861;28;20656;-63
2022/10/15 04:30:40;;;;;;;8.30;3.07;;;;;;;14.34;100.00;101965.84;2062574;28;20186;-63
2022/10/15 04:31:41;;;;;;;5.77;2.97;;;;;;;14.35;100.00;101965.38;2062520;28;20732;-63
2022/10/15 04:32:41;;;;;;;7.43;3.03;;;;;;;14.37;100.00;101970.53;2062383;28;20182;-63
2022/10/15 04:33:42;;;;;;;7.00;3.10;;;;;;;14.36;100.00;101971.75;2061742;28;20190;-63
2022/10/15 04:34:44;;;;;;;5.93;2.57;;;;;;;14.20;100.00;101938.97;2062066;28;20174;-63
2022/10/15 04:35:44;;;;;;;6.87;3.00;;;;;;;14.33;100.00;101970.63;2062015;28;20560;-63
2022/10/15 04:36:45;;;;;;;5.60;2.77;;;;;;;14.33;100.00;101969.81;2062627;28;20433;-64
2022/10/15 04:37:45;;;;;;;7.37;3.20;;;;;;;14.33;100.00;101969.81;2062636;28;20788;-63
2022/10/15 04:38:46;;;;;;;6.27;2.97;;;;;;;14.32;100.00;101965.47;2061688;28;20205;-63
2022/10/15 04:39:46;;;;;;;5.63;2.60;;;;;;;14.29;100.00;101969.88;2062299;28;20191;-63
2022/10/15 04:40:47;;;;;;;4.53;2.80;;;;;;;14.30;100.00;101971.44;2061912;28;20243;-63
2022/10/15 04:41:47;;;;;;;7.80;2.83;;;;;;;14.30;100.00;101973.47;2062567;28;20178;-63
2022/10/15 04:42:48;;;;;;;6.53;2.90;;;;;;;14.30;100.00;101987.41;2062288;28;20182;-63
2022/10/15 04:43:48;;;;;;;4.27;2.63;;;;;;;14.29;100.00;101981.03;2062100;28;20182;-64
2022/10/15 04:44:49;;;;;;;5.67;3.07;;;;;;;14.29;100.00;101983.81;2062143;28;20210;-63
2022/10/15 04:45:49;;;;;;;5.03;3.03;;;;;;;14.26;100.00;101979.13;2062171;28;20245;-63
2022/10/15 04:46:49;;;;;;;6.23;3.20;;;;;;;14.17;100.00;101964.91;2061997;28;20189;-63
2022/10/15 04:47:50;;;;;;;7.43;2.67;;;;;;;14.24;100.00;101983.53;2061561;28;20182;-63
2022/10/15 04:48:51;;;;;;;6.53;3.00;;;;;;;14.17;100.00;101987.19;2060978;28;20638;-63
2022/10/15 04:49:52;;;;;;;5.67;2.90;;;;;;;14.16;100.00;101985.63;2067844;28;20218;-63
2022/10/15 04:50:52;;;;;;;7.00;2.93;;;;;;;14.13;100.00;101978.09;2062425;28;20969;-63
2022/10/15 04:51:53;;;;;;;6.30;2.90;;;;;;;14.13;100.00;101977.31;2062546;28;20218;-63
2022/10/15 04:52:53;;;;;;;7.80;3.17;;;;;;;14.12;100.00;101990.47;2062685;28;20194;-63